Time;durP1;ratioP1;P1;durP2;ratioP2;P2;SDS_P1;SDS_P2;PMS_P1;PMS_P2;Temp;Humidity;BMP_temperature;BMP_pressure;BME280_temperature;BME280_humidity;BME280_pressure;Samples;Min_cycle;Max_cycle;Signal;HPM_P1;HPM_P2
2022/06/11 00:00:59;;;;;;;4.78;3.03;;;16.80;99.90;;;;;;4970167;28;20047;-40
2022/06/11 00:03:24;;;;;;;7.20;3.72;;;16.70;99.90;;;;;;4973592;28;20030;-40
2022/06/11 00:05:50;;;;;;;7.82;4.10;;;16.60;99.90;;;;;;4965473;28;20047;-43
2022/06/11 00:08:17;;;;;;;8.20;4.07;;;16.60;99.90;;;;;;4970660;28;20034;-39
2022/06/11 00:10:43;;;;;;;9.40;3.72;;;16.60;99.90;;;;;;4980846;28;20046;-41
2022/06/11 00:13:10;;;;;;;8.23;4.00;;;16.50;99.90;;;;;;4964885;28;20058;-40
2022/06/11 00:15:36;;;;;;;8.25;3.83;;;16.50;99.90;;;;;;4967615;28;20591;-40
2022/06/11 00:18:03;;;;;;;10.30;4.68;;;16.50;99.90;;;;;;4969780;28;20038;-44
2022/06/11 00:20:30;;;;;;;7.53;3.60;;;16.50;99.90;;;;;;4958216;28;20051;-40
2022/06/11 00:22:55;;;;;;;10.18;4.90;;;16.50;99.90;;;;;;4976133;28;20093;-40
2022/06/11 00:25:22;;;;;;;8.27;4.15;;;16.50;99.90;;;;;;4968919;28;20042;-40
2022/06/11 00:27:48;;;;;;;8.57;4.28;;;16.50;99.90;;;;;;4973769;28;20177;-40
2022/06/11 00:30:14;;;;;;;7.60;4.07;;;16.60;99.90;;;;;;4981708;28;20423;-40
2022/06/11 00:32:40;;;;;;;9.07;5.13;;;16.50;99.90;;;;;;4972860;28;20504;-40
2022/06/11 00:35:08;;;;;;;6.82;3.55;;;16.50;99.90;;;;;;4968480;28;20042;-41
2022/06/11 00:37:34;;;;;;;8.23;3.70;;;16.50;99.90;;;;;;4972681;28;20050;-40
2022/06/11 00:40:00;;;;;;;5.82;3.90;;;16.50;99.90;;;;;;4974333;28;20050;-40
2022/06/11 00:42:31;;;;;;;10.30;3.83;;;16.40;99.90;;;;;;4965176;28;20046;-41
2022/06/11 00:45:19;;;;;;;5.72;4.40;;;16.50;99.90;;;;;;4971659;28;20058;-43
2022/06/11 00:47:50;;;;;;;11.02;3.72;;;16.50;99.90;;;;;;4966541;28;20535;-40
2022/06/11 00:50:42;;;;;;;8.77;4.50;;;16.40;99.90;;;;;;4966121;28;20057;-39
2022/06/11 00:53:36;;;;;;;10.97;4.60;;;16.40;99.90;;;;;;4971494;28;20081;-39
2022/06/11 00:56:06;;;;;;;9.80;4.45;;;16.40;99.90;;;;;;4957625;28;20047;-40
2022/06/11 00:58:39;;;;;;;6.00;3.88;;;16.30;99.90;;;;;;4969437;28;20068;-41
2022/06/11 01:01:07;;;;;;;6.78;3.88;;;16.30;99.90;;;;;;4968357;28;20515;-40
2022/06/11 01:03:36;;;;;;;7.72;3.97;;;16.30;99.90;;;;;;4966830;28;20110;-40
2022/06/11 01:06:20;;;;;;;8.32;4.10;;;16.20;99.90;;;;;;4963729;28;20047;-41
2022/06/11 01:09:02;;;;;;;8.32;3.50;;;16.20;99.90;;;;;;4970003;28;20133;-41
2022/06/11 01:11:37;;;;;;;;;;;16.10;99.90;;;;;;4962907;28;20396;-40
2022/06/11 01:14:31;;;;;;;6.65;3.22;;;16.00;99.90;;;;;;4968446;28;19932;-41
2022/06/11 01:17:15;;;;;;;5.57;3.17;;;16.00;99.90;;;;;;4973265;28;20034;-40
2022/06/11 01:20:08;;;;;;;5.00;3.38;;;16.00;99.90;;;;;;4970839;28;20512;-41
2022/06/11 01:22:52;;;;;;;6.07;3.60;;;16.00;99.90;;;;;;4940450;28;20492;-40
2022/06/11 01:25:37;;;;;;;7.53;3.38;;;16.00;99.90;;;;;;4973065;28;20042;-40
2022/06/11 01:28:21;;;;;;;6.15;3.67;;;15.90;99.90;;;;;;4971378;28;20043;-41
2022/06/11 01:30:56;;;;;;;8.27;4.53;;;16.00;99.90;;;;;;4971922;28;20350;-41
2022/06/11 01:33:35;;;;;;;8.32;4.07;;;16.00;99.90;;;;;;4966220;28;20039;-41
2022/06/11 01:36:24;;;;;;;7.80;4.70;;;15.90;99.90;;;;;;4965128;28;20035;-40
2022/06/11 01:39:04;;;;;;;8.63;5.05;;;15.90;99.90;;;;;;4950286;28;20042;-41
2022/06/11 01:41:48;;;;;;;11.15;4.78;;;15.90;99.90;;;;;;4969862;28;20085;-41
2022/06/11 01:44:23;;;;;;;8.90;4.70;;;15.80;99.90;;;;;;4965217;28;20046;-41
2022/06/11 01:46:51;;;;;;;8.23;4.45;;;15.80;99.90;;;;;;4977379;28;20105;-39
2022/06/11 01:49:23;;;;;;;7.50;4.68;;;15.80;99.90;;;;;;4972930;28;20472;-40
2022/06/11 01:52:13;;;;;;;7.72;3.95;;;15.70;99.90;;;;;;4971554;28;20496;-40
2022/06/11 01:55:00;;;;;;;8.90;4.38;;;15.80;99.90;;;;;;4968176;28;20057;-40
2022/06/11 01:57:55;;;;;;;9.57;5.38;;;15.70;99.90;;;;;;4960855;28;20048;-40
2022/06/11 02:00:31;;;;;;;8.73;5.38;;;15.60;99.90;;;;;;4966323;28;20046;-40
2022/06/11 02:03:21;;;;;;;8.13;4.60;;;15.50;99.90;;;;;;4968777;28;20042;-40
2022/06/11 02:05:59;;;;;;;7.85;4.93;;;15.50;99.90;;;;;;4970098;28;20035;-40
2022/06/11 02:08:39;;;;;;;8.27;5.00;;;15.50;99.90;;;;;;4967252;28;20368;-42
2022/06/11 02:11:16;;;;;;;11.50;5.63;;;15.40;99.90;;;;;;4968041;28;20444;-41
2022/06/11 02:13:44;;;;;;;10.23;5.47;;;15.40;99.90;;;;;;4963218;28;20413;-40
2022/06/11 02:16:38;;;;;;;13.18;6.15;;;15.30;99.90;;;;;;4960380;28;20059;-42
2022/06/11 02:19:17;;;;;;;10.10;5.63;;;15.30;99.90;;;;;;4944632;28;20062;-41
2022/06/11 02:21:54;;;;;;;11.68;5.28;;;15.20;99.90;;;;;;4965896;28;20073;-40
2022/06/11 02:24:52;;;;;;;10.07;6.22;;;15.20;99.90;;;;;;4971274;28;20043;-40
2022/06/11 02:27:23;;;;;;;8.40;5.47;;;15.20;99.90;;;;;;4962093;28;20137;-41
2022/06/11 02:29:52;;;;;;;11.45;5.53;;;15.20;99.90;;;;;;4966481;28;20035;-41
2022/06/11 02:32:20;;;;;;;7.75;5.32;;;15.10;99.90;;;;;;4971384;28;20373;-44
2022/06/11 02:34:51;;;;;;;10.80;6.82;;;15.10;99.90;;;;;;4970393;28;20129;-41
2022/06/11 02:37:33;;;;;;;13.80;6.13;;;15.10;99.90;;;;;;4968197;28;20115;-39
2022/06/11 02:40:25;;;;;;;9.30;6.30;;;15.00;99.90;;;;;;4963987;28;20043;-41
2022/06/11 02:42:51;;;;;;;12.05;6.43;;;15.00;99.90;;;;;;4957383;28;20057;-42
2022/06/11 02:45:18;;;;;;;9.43;6.47;;;14.90;99.90;;;;;;4976128;28;20046;-40
2022/06/11 02:47:47;;;;;;;11.77;6.15;;;14.80;99.90;;;;;;4976225;28;20416;-40
2022/06/11 02:50:24;;;;;;;9.20;5.53;;;14.80;99.90;;;;;;4965488;28;20097;-42
2022/06/11 02:52:50;;;;;;;8.55;5.97;;;14.80;99.90;;;;;;4966542;28;20038;-40
2022/06/11 02:55:17;;;;;;;10.02;5.82;;;14.70;99.90;;;;;;4960354;28;20376;-41
2022/06/11 02:57:43;;;;;;;10.13;5.45;;;14.70;99.90;;;;;;4961342;28;20638;-41
2022/06/11 03:00:12;;;;;;;9.30;5.53;;;14.70;99.90;;;;;;4969145;28;20057;-41
2022/06/11 03:02:38;;;;;;;9.05;5.38;;;14.70;99.90;;;;;;4967890;28;20043;-39
2022/06/11 03:05:04;;;;;;;8.93;4.78;;;14.60;99.90;;;;;;4962145;28;20544;-40
2022/06/11 03:07:30;;;;;;;12.82;5.00;;;14.60;99.90;;;;;;4955502;28;20533;-40
2022/06/11 03:09:56;;;;;;;11.43;4.38;;;14.60;99.90;;;;;;4967918;28;20125;-41
2022/06/11 03:12:22;;;;;;;12.23;4.20;;;14.50;99.90;;;;;;4950335;28;20035;-40
2022/06/11 03:14:47;;;;;;;10.25;3.95;;;14.50;99.90;;;;;;4966880;28;20051;-40
2022/06/11 03:17:17;;;;;;;11.07;3.70;;;14.60;99.90;;;;;;4969056;28;20078;-41
2022/06/11 03:19:43;;;;;;;7.18;3.10;;;14.60;99.90;;;;;;4947751;28;20098;-43
2022/06/11 03:22:09;;;;;;;11.77;2.67;;;14.60;99.90;;;;;;4962210;28;20043;-40
2022/06/11 03:24:36;;;;;;;10.25;2.58;;;14.60;99.90;;;;;;4969321;28;20054;-40
2022/06/11 03:27:02;;;;;;;10.52;2.80;;;14.60;99.90;;;;;;4972557;28;20108;-40
2022/06/11 03:29:28;;;;;;;5.95;1.83;;;14.60;99.90;;;;;;4971636;28;20455;-40
2022/06/11 03:31:54;;;;;;;8.40;2.38;;;14.50;99.90;;;;;;4972842;28;20043;-42
2022/06/11 03:34:21;;;;;;;10.73;2.42;;;14.40;99.90;;;;;;4971489;28;20046;-40
2022/06/11 03:36:49;;;;;;;9.32;2.00;;;14.40;99.90;;;;;;4947829;28;20485;-40
2022/06/11 03:39:18;;;;;;;10.05;2.20;;;14.40;99.90;;;;;;4968411;28;20049;-40
2022/06/11 03:41:44;;;;;;;10.02;2.13;;;14.30;99.90;;;;;;4966769;28;20051;-41
2022/06/11 03:44:10;;;;;;;9.80;2.03;;;14.40;99.90;;;;;;4964061;28;20038;-41
2022/06/11 03:46:36;;;;;;;8.82;2.33;;;14.40;99.90;;;;;;4968853;28;20437;-40
2022/06/11 03:49:03;;;;;;;13.52;1.90;;;14.40;99.90;;;;;;4955648;28;20050;-39
2022/06/11 03:51:29;;;;;;;6.50;2.08;;;14.40;99.90;;;;;;4971373;28;20053;-42
2022/06/11 03:53:55;;;;;;;8.13;1.75;;;14.50;99.90;;;;;;4969022;28;20034;-39
2022/06/11 03:56:21;;;;;;;7.15;1.75;;;14.50;99.90;;;;;;4970756;28;20045;-44
2022/06/11 03:58:49;;;;;;;10.38;2.20;;;14.40;99.90;;;;;;4969408;28;20101;-40
2022/06/11 04:01:23;;;;;;;11.70;1.92;;;14.50;99.90;;;;;;4977936;28;20046;-41
2022/06/11 04:03:55;;;;;;;7.30;1.75;;;14.50;99.90;;;;;;4969832;28;20864;-40
2022/06/11 04:06:35;;;;;;;10.63;2.30;;;14.40;99.90;;;;;;4971577;28;20408;-40
2022/06/11 04:09:02;;;;;;;6.55;1.52;;;14.40;99.90;;;;;;4979990;28;20174;-42
2022/06/11 04:11:28;;;;;;;10.02;2.30;;;14.40;99.90;;;;;;4965294;28;20035;-40
2022/06/11 04:13:54;;;;;;;10.02;1.92;;;14.40;99.90;;;;;;4965022;28;20058;-41
2022/06/11 04:16:34;;;;;;;7.35;1.55;;;14.40;99.90;;;;;;4970725;28;20073;-40
2022/06/11 04:19:02;;;;;;;12.60;1.95;;;14.40;99.90;;;;;;4970717;28;20404;-40
2022/06/11 04:21:31;;;;;;;9.80;2.20;;;14.40;99.90;;;;;;4969061;28;20559;-40
2022/06/11 04:23:58;;;;;;;4.45;1.45;;;14.50;99.90;;;;;;4966897;28;20046;-40
2022/06/11 04:26:29;;;;;;;8.55;2.08;;;14.50;99.90;;;;;;4973776;28;20512;-42
2022/06/11 04:28:56;;;;;;;5.97;1.98;;;14.50;99.90;;;;;;4972212;28;20114;-39
2022/06/11 04:31:24;;;;;;;5.38;2.10;;;14.50;99.90;;;;;;4947659;28;20417;-40
2022/06/11 04:33:50;;;;;;;5.97;2.08;;;14.50;99.90;;;;;;4969182;28;20042;-41
2022/06/11 04:36:19;;;;;;;5.07;2.28;;;14.50;99.90;;;;;;4969692;28;20049;-41
2022/06/11 04:38:45;;;;;;;7.60;2.33;;;14.50;99.90;;;;;;4968587;28;20134;-39
2022/06/11 04:41:12;;;;;;;6.30;2.40;;;14.60;99.90;;;;;;4953397;28;20496;-40
2022/06/11 04:43:38;;;;;;;5.70;2.20;;;14.60;99.90;;;;;;4968486;28;20503;-40
2022/06/11 04:46:04;;;;;;;7.28;2.63;;;14.60;99.90;;;;;;4968498;28;20543;-39
2022/06/11 04:48:31;;;;;;;8.32;2.65;;;14.60;99.90;;;;;;4972282;28;20137;-40
2022/06/11 04:50:57;;;;;;;12.60;3.13;;;14.60;99.90;;;;;;4952379;28;20060;-40
2022/06/11 04:53:22;;;;;;;6.30;2.00;;;14.70;99.90;;;;;;4972342;28;20042;-40
2022/06/11 04:55:48;;;;;;;7.93;2.20;;;14.80;99.90;;;;;;4967942;28;20091;-40
2022/06/11 04:58:14;;;;;;;7.30;2.78;;;14.80;99.90;;;;;;4968796;28;20074;-41
2022/06/11 05:00:40;;;;;;;12.77;2.50;;;14.90;99.90;;;;;;4982349;28;20145;-40
2022/06/11 05:03:06;;;;;;;6.20;2.40;;;14.90;99.90;;;;;;4966334;28;20030;-40
2022/06/11 05:05:32;;;;;;;8.65;2.47;;;15.00;99.90;;;;;;4969316;28;20116;-39
2022/06/11 05:07:59;;;;;;;7.32;2.42;;;15.00;99.90;;;;;;4964500;28;20080;-39
2022/06/11 05:10:27;;;;;;;7.35;2.47;;;15.00;99.90;;;;;;4967851;28;20118;-39
2022/06/11 05:12:56;;;;;;;8.50;2.25;;;15.10;99.90;;;;;;4954168;28;20503;-45
2022/06/11 05:15:22;;;;;;;9.40;2.47;;;15.20;99.90;;;;;;4949808;28;20053;-39
2022/06/11 05:17:48;;;;;;;9.18;2.60;;;15.20;99.90;;;;;;4950315;28;20047;-39
2022/06/11 05:20:15;;;;;;;7.53;2.35;;;15.20;99.90;;;;;;4948715;28;20122;-40
2022/06/11 05:22:41;;;;;;;9.65;2.65;;;15.30;99.90;;;;;;4949148;28;20039;-41
2022/06/11 05:25:08;;;;;;;7.30;2.10;;;15.40;99.90;;;;;;4950254;28;20051;-39
2022/06/11 05:27:34;;;;;;;6.80;2.13;;;15.40;99.90;;;;;;4949080;28;20039;-40
2022/06/11 05:30:07;;;;;;;7.40;2.08;;;15.40;99.90;;;;;;4952315;28;20449;-41
2022/06/11 05:32:35;;;;;;;;;;;15.50;99.90;;;;;;4949827;28;20094;-39
2022/06/11 05:35:03;;;;;;;12.75;2.33;;;15.50;99.90;;;;;;4951271;28;19985;-40
2022/06/11 05:37:29;;;;;;;7.90;1.70;;;15.50;99.90;;;;;;4945313;28;20075;-39
2022/06/11 05:39:55;;;;;;;11.10;2.15;;;15.60;99.90;;;;;;4973702;28;20090;-41
2022/06/11 05:42:23;;;;;;;9.15;2.22;;;15.60;99.90;;;;;;4964085;28;20097;-40
2022/06/11 05:44:49;;;;;;;8.02;1.70;;;15.70;99.90;;;;;;4951740;28;20102;-39
2022/06/11 05:47:19;;;;;;;9.15;2.63;;;15.70;99.90;;;;;;4956834;28;20043;-40
2022/06/11 05:49:49;;;;;;;10.82;2.22;;;15.70;99.90;;;;;;4943240;28;20118;-41
2022/06/11 05:52:19;;;;;;;5.00;1.60;;;15.80;99.90;;;;;;4952178;28;20043;-43
2022/06/11 05:54:48;;;;;;;11.23;2.13;;;15.80;99.90;;;;;;4947399;28;20512;-41
2022/06/11 05:57:20;;;;;;;12.73;2.40;;;15.90;99.90;;;;;;4948206;29;20083;-48
2022/06/11 05:59:50;;;;;;;10.35;2.08;;;15.90;99.90;;;;;;4952140;28;20512;-40
2022/06/11 06:02:19;;;;;;;12.70;2.30;;;15.90;99.90;;;;;;4951850;28;20047;-39
2022/06/11 06:04:45;;;;;;;12.40;2.30;;;16.00;99.90;;;;;;4951814;28;20409;-41
2022/06/11 06:07:11;;;;;;;12.15;2.60;;;16.00;99.90;;;;;;4949416;28;20067;-40
2022/06/11 06:09:37;;;;;;;9.52;2.25;;;16.10;99.90;;;;;;4953011;28;20031;-40
2022/06/11 06:12:03;;;;;;;11.05;2.10;;;16.10;99.90;;;;;;4945200;28;20039;-39
2022/06/11 06:14:29;;;;;;;9.90;2.03;;;16.10;99.90;;;;;;4963739;28;20069;-41
2022/06/11 06:16:55;;;;;;;13.80;2.88;;;16.20;99.90;;;;;;4967593;28;20492;-41
2022/06/11 06:19:20;;;;;;;11.82;2.55;;;16.20;99.90;;;;;;4990167;28;20039;-39
2022/06/11 06:21:46;;;;;;;15.23;3.25;;;16.20;99.90;;;;;;4968495;28;20038;-39
2022/06/11 06:24:12;;;;;;;13.02;2.35;;;16.30;99.90;;;;;;4973336;28;20053;-40
2022/06/11 06:26:39;;;;;;;12.65;2.75;;;16.30;99.90;;;;;;4973124;28;20039;-39
2022/06/11 06:29:05;;;;;;;16.30;2.60;;;16.40;99.90;;;;;;4968388;28;20129;-41
2022/06/11 06:31:31;;;;;;;14.63;3.17;;;16.40;99.90;;;;;;4973961;28;20118;-41
2022/06/11 06:34:00;;;;;;;12.98;2.63;;;16.40;99.90;;;;;;4961325;28;20483;-40
2022/06/11 06:36:30;;;;;;;13.70;2.20;;;16.50;99.90;;;;;;4958459;28;20035;-40
2022/06/11 06:38:56;;;;;;;10.80;2.03;;;16.50;99.90;;;;;;4972925;28;20066;-40
2022/06/11 06:41:22;;;;;;;14.13;2.72;;;16.60;99.90;;;;;;4969691;28;20053;-42
2022/06/11 06:43:49;;;;;;;13.27;2.65;;;16.70;99.90;;;;;;4984349;28;20122;-41
2022/06/11 06:46:16;;;;;;;13.65;2.72;;;16.60;99.90;;;;;;4975462;28;20495;-40
2022/06/11 06:48:43;;;;;;;11.25;2.42;;;16.70;99.90;;;;;;4972792;28;20133;-39
2022/06/11 06:51:10;;;;;;;13.55;2.88;;;16.80;99.90;;;;;;4968672;28;20121;-42
2022/06/11 06:53:42;;;;;;;12.02;2.47;;;16.80;99.90;;;;;;4955495;28;20051;-41
2022/06/11 06:56:08;;;;;;;12.07;2.88;;;16.90;99.90;;;;;;4970390;28;20070;-41
2022/06/11 06:58:34;;;;;;;15.80;3.08;;;16.90;99.90;;;;;;4966479;28;20542;-40
2022/06/11 07:01:00;;;;;;;14.45;2.72;;;17.00;99.90;;;;;;4966512;28;20074;-40
2022/06/11 07:03:26;;;;;;;15.63;2.35;;;17.10;99.90;;;;;;4976913;28;20042;-41
2022/06/11 07:05:52;;;;;;;16.58;2.97;;;17.30;99.90;;;;;;4973267;28;20038;-40
2022/06/11 07:08:18;;;;;;;12.32;2.15;;;17.30;99.90;;;;;;4955220;28;20035;-40
2022/06/11 07:10:53;;;;;;;12.50;2.30;;;17.30;99.90;;;;;;4972238;28;20058;-41
2022/06/11 07:13:20;;;;;;;13.45;2.47;;;17.30;99.90;;;;;;4972185;28;20101;-40
2022/06/11 07:15:49;;;;;;;11.57;2.97;;;17.40;99.90;;;;;;4976038;28;20082;-40
2022/06/11 07:18:28;;;;;;;15.43;2.20;;;17.40;99.90;;;;;;4979988;28;20042;-41
2022/06/11 07:20:57;;;;;;;15.50;2.80;;;17.50;99.90;;;;;;4971234;28;20153;-40
2022/06/11 07:23:29;;;;;;;12.27;2.83;;;17.50;99.90;;;;;;4978495;28;20162;-40
2022/06/11 07:25:59;;;;;;;10.32;2.42;;;17.60;99.90;;;;;;4971335;28;20939;-40
2022/06/11 07:28:33;;;;;;;10.60;2.55;;;17.60;99.90;;;;;;4973162;28;20132;-39
2022/06/11 07:31:00;;;;;;;13.43;2.20;;;17.60;99.90;;;;;;4953332;28;20405;-39
2022/06/11 07:33:27;;;;;;;11.60;2.30;;;17.60;99.90;;;;;;4968160;28;20125;-40
2022/06/11 07:35:54;;;;;;;17.33;2.67;;;17.60;99.90;;;;;;4969233;28;20138;-40
2022/06/11 07:38:21;;;;;;;16.50;2.80;;;17.70;99.90;;;;;;4972597;28;20548;-40
2022/06/11 07:40:47;;;;;;;14.82;2.75;;;17.80;99.90;;;;;;4969721;28;20034;-40
2022/06/11 07:43:13;;;;;;;16.08;2.53;;;17.80;99.90;;;;;;4971079;28;20042;-39
2022/06/11 07:45:40;;;;;;;15.85;2.97;;;17.90;99.90;;;;;;4953316;28;20042;-39
2022/06/11 07:48:07;;;;;;;15.27;2.63;;;17.90;99.90;;;;;;4964308;28;20484;-40
2022/06/11 07:50:37;;;;;;;17.50;3.35;;;17.90;99.90;;;;;;4968159;28;20469;-40
2022/06/11 07:53:05;;;;;;;14.48;2.78;;;17.80;99.90;;;;;;4971219;28;20988;-39
2022/06/11 07:55:32;;;;;;;12.95;2.95;;;17.80;99.90;;;;;;4976389;28;20050;-40
2022/06/11 07:57:58;;;;;;;13.93;2.42;;;17.90;99.90;;;;;;4967327;28;20046;-39
2022/06/11 08:00:27;;;;;;;18.80;2.58;;;17.90;99.90;;;;;;4967334;28;20389;-39
2022/06/11 08:02:53;;;;;;;17.83;2.67;;;17.90;99.90;;;;;;4965737;28;20053;-41
2022/06/11 08:05:20;;;;;;;11.15;2.67;;;18.10;99.90;;;;;;4966937;28;20043;-39
2022/06/11 08:07:46;;;;;;;10.48;2.65;;;18.10;99.90;;;;;;4969914;28;20500;-40
2022/06/11 08:10:13;;;;;;;16.55;2.75;;;18.20;99.90;;;;;;4967329;28;20637;-40
2022/06/11 08:12:40;;;;;;;21.25;4.78;;;18.20;99.90;;;;;;4975482;28;20109;-39
2022/06/11 08:15:06;;;;;;;16.60;3.25;;;18.30;99.90;;;;;;4956270;28;20058;-42
2022/06/11 08:17:34;;;;;;;15.75;3.10;;;18.30;99.90;;;;;;4975546;28;20435;-44
2022/06/11 08:20:01;;;;;;;15.57;2.70;;;18.40;99.90;;;;;;4972031;28;20564;-39
2022/06/11 08:22:26;;;;;;;14.00;2.45;;;18.50;99.90;;;;;;4970841;28;20046;-40
2022/06/11 08:24:52;;;;;;;16.48;2.60;;;18.50;99.90;;;;;;4978021;28;20104;-40
2022/06/11 08:27:18;;;;;;;12.85;2.25;;;18.50;99.90;;;;;;4982728;28;20085;-39
2022/06/11 08:29:45;;;;;;;14.50;2.75;;;18.50;99.90;;;;;;4977225;28;20392;-40
2022/06/11 08:32:11;;;;;;;12.73;3.03;;;18.50;99.90;;;;;;4973008;28;20051;-40
2022/06/11 08:34:38;;;;;;;12.00;2.38;;;18.50;99.90;;;;;;4980344;28;20389;-41
2022/06/11 08:37:04;;;;;;;11.32;2.63;;;18.60;99.90;;;;;;4967214;28;20035;-42
2022/06/11 08:39:30;;;;;;;10.05;2.30;;;18.60;99.90;;;;;;4968743;28;20038;-41
2022/06/11 08:41:59;;;;;;;13.80;2.35;;;18.70;99.90;;;;;;4970443;28;20046;-40
2022/06/11 08:44:25;;;;;;;14.48;2.83;;;18.80;99.90;;;;;;4973568;28;20030;-52
2022/06/11 08:46:51;;;;;;;9.57;2.15;;;18.80;99.90;;;;;;4971311;28;20050;-40
2022/06/11 08:49:46;;;;;;;17.85;3.00;;;19.00;99.90;;;;;;4966333;28;20037;-39
2022/06/11 08:52:23;;;;;;;10.23;2.50;;;19.00;99.30;;;;;;4968188;28;20098;-40
2022/06/11 08:54:49;;;;;;;11.88;2.92;;;19.00;96.80;;;;;;4968178;28;20035;-39
2022/06/11 08:57:51;;;;;;;14.10;2.45;;;19.10;98.00;;;;;;4968695;28;20053;-41
2022/06/11 09:00:21;;;;;;;10.23;2.47;;;19.10;97.60;;;;;;4969047;28;20519;-41
2022/06/11 09:03:25;;;;;;;9.77;2.17;;;19.10;96.70;;;;;;4967773;28;20516;-41
2022/06/11 09:06:17;;;;;;;8.05;1.88;;;19.20;96.80;;;;;;4975750;28;20533;-40
2022/06/11 09:09:10;;;;;;;11.95;2.00;;;19.30;92.60;;;;;;4963991;28;20043;-39
2022/06/11 09:11:53;;;;;;;12.65;1.98;;;19.40;90.70;;;;;;4970957;28;20046;-40
2022/06/11 09:14:48;;;;;;;8.93;1.98;;;19.40;88.60;;;;;;4962109;28;20082;-40
2022/06/11 09:17:39;;;;;;;8.40;1.90;;;19.60;90.90;;;;;;4965219;28;20038;-42
2022/06/11 09:20:25;;;;;;;9.05;1.80;;;19.70;90.60;;;;;;4966296;28;20070;-41
2022/06/11 09:22:53;;;;;;;13.93;2.08;;;19.70;88.90;;;;;;4959493;28;20050;-40
2022/06/11 09:25:57;;;;;;;10.13;1.75;;;19.70;89.70;;;;;;4970729;28;20128;-39
2022/06/11 09:28:50;;;;;;;8.48;1.80;;;19.80;90.00;;;;;;4891819;29;20123;-40
2022/06/11 09:31:37;;;;;;;;;;;19.90;89.00;;;;;;4965167;28;20078;-40
2022/06/11 09:34:10;;;;;;;8.10;1.48;;;19.90;85.20;;;;;;4970182;28;20318;-41
2022/06/11 09:36:44;;;;;;;5.95;1.30;;;19.90;84.30;;;;;;4968768;28;20652;-40
2022/06/11 09:39:22;;;;;;;6.88;1.50;;;19.90;77.00;;;;;;4966494;28;20149;-41
2022/06/11 09:42:09;;;;;;;8.60;1.55;;;20.00;81.40;;;;;;4962693;28;20198;-40
2022/06/11 09:45:03;;;;;;;11.57;1.63;;;20.10;76.80;;;;;;4947551;28;20050;-40
2022/06/11 09:47:48;;;;;;;5.82;1.38;;;20.20;77.90;;;;;;4978734;28;20050;-40
2022/06/11 09:50:35;;;;;;;8.55;1.60;;;20.30;78.30;;;;;;4972955;28;20035;-38
2022/06/11 09:53:35;;;;;;;10.80;2.10;;;20.30;74.70;;;;;;4964162;28;20061;-40
2022/06/11 09:56:30;;;;;;;12.00;1.45;;;20.40;75.90;;;;;;4968470;28;20555;-39
2022/06/11 09:59:24;;;;;;;13.70;1.88;;;20.40;75.80;;;;;;4963688;28;20074;-39
2022/06/11 10:02:09;;;;;;;10.13;1.58;;;20.50;73.00;;;;;;4975813;28;20566;-39
2022/06/11 10:04:42;;;;;;;8.05;1.92;;;20.60;75.00;;;;;;4981163;28;20082;-41
2022/06/11 10:07:16;;;;;;;9.25;1.80;;;20.60;73.60;;;;;;4970027;28;20527;-40
2022/06/11 10:09:55;;;;;;;6.55;1.50;;;20.80;72.90;;;;;;4971450;28;20558;-39
2022/06/11 10:12:23;;;;;;;9.82;1.83;;;21.00;69.60;;;;;;4966265;28;20074;-38
2022/06/11 10:15:08;;;;;;;7.55;1.60;;;21.00;70.70;;;;;;4966917;28;20551;-39
2022/06/11 10:17:46;;;;;;;10.15;2.08;;;21.10;67.30;;;;;;4964610;28;20051;-38
2022/06/11 10:20:44;;;;;;;9.40;1.52;;;21.20;67.30;;;;;;4976928;28;20058;-39
2022/06/11 10:23:15;;;;;;;8.90;1.77;;;21.30;66.50;;;;;;4946967;28;20055;-41
2022/06/11 10:26:19;;;;;;;6.63;1.15;;;21.30;66.80;;;;;;4979294;28;20511;-39
2022/06/11 10:28:57;;;;;;;10.88;1.52;;;21.30;64.70;;;;;;4970504;28;20051;-40
2022/06/11 10:31:29;;;;;;;7.93;1.60;;;21.20;60.70;;;;;;4978394;28;20497;-39
2022/06/11 10:34:16;;;;;;;11.38;1.52;;;21.20;64.90;;;;;;4970311;28;20041;-39
2022/06/11 10:36:51;;;;;;;6.03;1.40;;;21.20;64.50;;;;;;4969947;28;20121;-39
2022/06/11 10:39:41;;;;;;;7.88;1.67;;;21.30;64.30;;;;;;4951368;28;20105;-39
2022/06/11 10:42:17;;;;;;;9.13;1.67;;;21.40;62.10;;;;;;4963180;28;20504;-39
2022/06/11 10:44:51;;;;;;;8.35;1.73;;;21.40;62.30;;;;;;4971518;28;20496;-39
2022/06/11 10:47:36;;;;;;;9.30;1.85;;;21.40;63.20;;;;;;4969013;28;20061;-39
2022/06/11 10:50:11;;;;;;;9.93;1.50;;;21.40;62.00;;;;;;4974514;28;20034;-40
2022/06/11 10:52:44;;;;;;;8.75;1.30;;;21.50;64.00;;;;;;4964730;28;20046;-41
2022/06/11 10:55:29;;;;;;;11.60;1.52;;;21.60;63.60;;;;;;4949578;28;20062;-40
2022/06/11 10:57:57;;;;;;;5.10;1.40;;;21.60;63.40;;;;;;4961710;28;20118;-39
2022/06/11 11:00:28;;;;;;;6.97;1.42;;;21.70;67.40;;;;;;4952683;28;20050;-41
2022/06/11 11:03:00;;;;;;;9.48;2.53;;;21.80;66.80;;;;;;4965325;28;20126;-41
2022/06/11 11:06:02;;;;;;;9.55;1.45;;;21.80;63.70;;;;;;4948277;28;20089;-40
2022/06/11 11:08:28;;;;;;;9.98;1.90;;;21.80;62.40;;;;;;4962481;28;20050;-39
2022/06/11 11:10:56;;;;;;;6.05;1.55;;;21.80;61.00;;;;;;4961686;28;20502;-40
2022/06/11 11:13:32;;;;;;;7.97;1.40;;;21.80;62.90;;;;;;4967090;28;20543;-40
2022/06/11 11:16:13;;;;;;;11.25;1.80;;;21.90;61.80;;;;;;4963945;28;20073;-41
2022/06/11 11:19:02;;;;;;;10.07;2.03;;;21.90;63.50;;;;;;4961176;28;20130;-41
2022/06/11 11:21:31;;;;;;;6.97;1.55;;;22.00;61.00;;;;;;4964010;28;20039;-39
2022/06/11 11:24:05;;;;;;;7.00;1.73;;;22.10;63.00;;;;;;4960825;28;20043;-38
2022/06/11 11:26:37;;;;;;;8.63;1.42;;;22.10;64.40;;;;;;4969546;28;20373;-39
2022/06/11 11:29:17;;;;;;;10.35;1.80;;;22.20;63.50;;;;;;4967686;28;20053;-39
2022/06/11 11:31:50;;;;;;;11.40;2.00;;;22.20;62.20;;;;;;4976453;28;20069;-39
2022/06/11 11:34:29;;;;;;;9.88;2.20;;;22.30;62.10;;;;;;4967301;28;20049;-39
2022/06/11 11:37:16;;;;;;;7.25;1.67;;;22.30;60.50;;;;;;4980470;28;20092;-38
2022/06/11 11:39:56;;;;;;;6.82;1.67;;;22.40;58.70;;;;;;4971134;28;20079;-39
2022/06/11 11:42:25;;;;;;;9.18;2.15;;;22.40;59.60;;;;;;4960518;28;20133;-38
2022/06/11 11:44:57;;;;;;;7.25;1.52;;;22.40;61.50;;;;;;4962064;28;20082;-40
2022/06/11 11:47:39;;;;;;;8.50;1.63;;;22.50;61.30;;;;;;4953175;28;20039;-40
2022/06/11 11:50:19;;;;;;;8.25;1.77;;;22.50;57.80;;;;;;4965217;28;20062;-41
2022/06/11 11:52:51;;;;;;;8.13;1.70;;;22.60;60.10;;;;;;4942586;28;20388;-38
2022/06/11 11:55:19;;;;;;;;;;;22.60;59.80;;;;;;4972867;28;20050;-38
2022/06/11 11:58:06;;;;;;;9.93;1.95;;;22.60;61.10;;;;;;4951597;28;19932;-38
2022/06/11 12:00:47;;;;;;;7.00;1.48;;;22.60;59.30;;;;;;4968355;28;20428;-40
2022/06/11 12:03:22;;;;;;;11.45;1.88;;;22.60;60.30;;;;;;4951842;28;20064;-39
2022/06/11 12:05:55;;;;;;;13.38;1.90;;;22.50;58.40;;;;;;4969672;28;20050;-41
2022/06/11 12:08:26;;;;;;;10.10;1.98;;;22.50;60.80;;;;;;4955443;28;20264;-40
2022/06/11 12:10:57;;;;;;;12.60;2.08;;;22.60;59.60;;;;;;4969080;28;20035;-39
2022/06/11 12:13:27;;;;;;;10.15;1.80;;;22.60;59.50;;;;;;4965557;28;20063;-39
2022/06/11 12:16:05;;;;;;;10.35;1.90;;;22.70;60.10;;;;;;4947113;28;20051;-39
2022/06/11 12:18:42;;;;;;;7.90;1.70;;;22.70;59.50;;;;;;4973777;28;20133;-38
2022/06/11 12:21:16;;;;;;;9.02;1.83;;;22.80;59.20;;;;;;4968972;28;20039;-39
2022/06/11 12:24:00;;;;;;;9.23;1.90;;;22.90;57.30;;;;;;4972766;28;20031;-38
2022/06/11 12:26:29;;;;;;;6.60;1.85;;;22.80;58.10;;;;;;4966609;28;20039;-37
2022/06/11 12:29:18;;;;;;;9.52;2.30;;;22.70;58.70;;;;;;4963309;28;20039;-37
2022/06/11 12:31:44;;;;;;;10.70;1.90;;;22.80;57.50;;;;;;4969263;28;20077;-39
2022/06/11 12:34:16;;;;;;;11.27;1.92;;;22.80;59.50;;;;;;4973150;28;20074;-37
2022/06/11 12:37:07;;;;;;;12.30;2.25;;;22.80;58.10;;;;;;4973203;28;20046;-38
2022/06/11 12:39:58;;;;;;;8.80;2.05;;;22.80;57.50;;;;;;4970382;28;20051;-38
2022/06/11 12:42:47;;;;;;;10.52;2.22;;;22.60;56.70;;;;;;4970780;28;20558;-38
2022/06/11 12:45:13;;;;;;;9.70;1.88;;;22.70;57.50;;;;;;4966869;28;20047;-39
2022/06/11 12:48:07;;;;;;;12.25;2.10;;;22.90;61.20;;;;;;4974186;28;20035;-38
2022/06/11 12:50:45;;;;;;;9.27;2.40;;;22.90;59.90;;;;;;4969165;28;20039;-38
2022/06/11 12:53:11;;;;;;;9.65;1.88;;;23.00;59.70;;;;;;4968305;28;20491;-37
2022/06/11 12:56:14;;;;;;;10.05;2.17;;;23.00;60.20;;;;;;4967630;28;20042;-38
2022/06/11 12:58:55;;;;;;;10.02;2.03;;;23.00;58.60;;;;;;4968005;28;20496;-39
2022/06/11 13:01:33;;;;;;;10.82;2.08;;;23.10;59.80;;;;;;4953684;28;20046;-40
2022/06/11 13:04:26;;;;;;;11.80;2.00;;;23.10;58.60;;;;;;4967729;28;20181;-41
2022/06/11 13:07:11;;;;;;;9.25;2.08;;;23.10;58.40;;;;;;4969964;28;20500;-40
2022/06/11 13:10:02;;;;;;;12.48;2.35;;;23.30;58.10;;;;;;4971494;28;20041;-39
2022/06/11 13:12:49;;;;;;;8.77;1.98;;;23.50;59.30;;;;;;4970421;28;20097;-40
2022/06/11 13:15:35;;;;;;;10.82;2.08;;;23.50;58.40;;;;;;4966716;28;20053;-39